sensor_id;sensor_type;location;lat;lon;timestamp;temperature;humidity
70928;SHT31;58587;53.034;18.576;2023-12-20T15:47:41;5.18;92.03
70928;SHT31;58587;53.034;18.576;2023-12-20T15:50:06;5.16;92.18
70928;SHT31;58587;53.034;18.576;2023-12-20T15:52:33;5.15;92.67
70928;SHT31;58587;53.034;18.576;2023-12-20T15:54:58;5.13;92.16
70928;SHT31;58587;53.034;18.576;2023-12-20T15:57:24;5.11;93.00
70928;SHT31;58587;53.034;18.576;2023-12-20T15:59:49;5.05;93.37
70928;SHT31;58587;53.034;18.576;2023-12-20T16:02:15;5.05;93.71
70928;SHT31;58587;53.034;18.576;2023-12-20T16:04:41;5.05;94.47
70928;SHT31;58587;53.034;18.576;2023-12-20T16:07:06;4.98;94.25
70928;SHT31;58587;53.034;18.576;2023-12-20T16:09:31;4.95;94.76
70928;SHT31;58587;53.034;18.576;2023-12-20T16:11:57;4.98;94.82
70928;SHT31;58587;53.034;18.576;2023-12-20T16:14:22;4.92;94.55
70928;SHT31;58587;53.034;18.576;2023-12-20T16:16:50;4.88;94.97
70928;SHT31;58587;53.034;18.576;2023-12-20T16:19:15;4.84;94.85
70928;SHT31;58587;53.034;18.576;2023-12-20T16:21:41;4.82;95.50
70928;SHT31;58587;53.034;18.576;2023-12-20T16:24:06;4.84;95.66
70928;SHT31;58587;53.034;18.576;2023-12-20T16:26:32;4.85;96.00
70928;SHT31;58587;53.034;18.576;2023-12-20T16:28:57;4.85;96.22
70928;SHT31;58587;53.034;18.576;2023-12-20T16:31:23;4.84;96.04
70928;SHT31;58587;53.034;18.576;2023-12-20T16:33:48;4.76;95.95
70928;SHT31;58587;53.034;18.576;2023-12-20T16:36:13;4.78;96.03
70928;SHT31;58587;53.034;18.576;2023-12-20T16:38:39;4.81;95.99
70928;SHT31;58587;53.034;18.576;2023-12-20T16:41:04;4.79;96.07
70928;SHT31;58587;53.034;18.576;2023-12-20T16:43:30;4.81;96.26
70928;SHT31;58587;53.034;18.576;2023-12-20T16:45:56;4.82;96.39
70928;SHT31;58587;53.034;18.576;2023-12-20T16:48:21;4.78;96.34
70928;SHT31;58587;53.034;18.576;2023-12-20T16:50:46;4.81;96.42
70928;SHT31;58587;53.034;18.576;2023-12-20T16:53:12;4.82;96.49
70928;SHT31;58587;53.034;18.576;2023-12-20T16:55:37;4.78;96.53
70928;SHT31;58587;53.034;18.576;2023-12-20T16:58:03;4.82;96.41
70928;SHT31;58587;53.034;18.576;2023-12-20T17:00:28;4.81;96.32
70928;SHT31;58587;53.034;18.576;2023-12-20T17:02:54;4.84;96.21
70928;SHT31;58587;53.034;18.576;2023-12-20T17:05:19;4.81;96.21
70928;SHT31;58587;53.034;18.576;2023-12-20T17:07:44;4.82;96.07
70928;SHT31;58587;53.034;18.576;2023-12-20T17:10:10;4.81;95.60
70928;SHT31;58587;53.034;18.576;2023-12-20T17:12:35;4.85;95.49
70928;SHT31;58587;53.034;18.576;2023-12-20T17:15:01;4.82;94.77
70928;SHT31;58587;53.034;18.576;2023-12-20T17:17:28;4.76;95.04
70928;SHT31;58587;53.034;18.576;2023-12-20T17:19:53;4.78;95.11
70928;SHT31;58587;53.034;18.576;2023-12-20T17:22:19;4.84;94.61
70928;SHT31;58587;53.034;18.576;2023-12-20T17:24:44;4.81;94.91
70928;SHT31;58587;53.034;18.576;2023-12-20T17:27:09;4.79;95.16
70928;SHT31;58587;53.034;18.576;2023-12-20T17:29:36;4.81;95.25
70928;SHT31;58587;53.034;18.576;2023-12-20T17:32:01;4.81;94.92
70928;SHT31;58587;53.034;18.576;2023-12-20T17:34:26;4.78;95.15
70928;SHT31;58587;53.034;18.576;2023-12-20T17:36:51;4.78;95.30
70928;SHT31;58587;53.034;18.576;2023-12-20T17:39:17;4.75;94.64
70928;SHT31;58587;53.034;18.576;2023-12-20T17:41:42;4.75;95.05
70928;SHT31;58587;53.034;18.576;2023-12-20T17:44:08;4.74;94.93
70928;SHT31;58587;53.034;18.576;2023-12-20T17:46:34;4.75;95.01
70928;SHT31;58587;53.034;18.576;2023-12-20T17:48:59;4.68;95.32
70928;SHT31;58587;53.034;18.576;2023-12-20T17:51:26;4.61;94.09
70928;SHT31;58587;53.034;18.576;2023-12-20T17:53:51;4.55;94.29
70928;SHT31;58587;53.034;18.576;2023-12-20T17:56:17;4.51;94.29
70928;SHT31;58587;53.034;18.576;2023-12-20T17:58:42;4.36;93.77
70928;SHT31;58587;53.034;18.576;2023-12-20T18:01:08;4.30;93.89
70928;SHT31;58587;53.034;18.576;2023-12-20T18:03:33;4.21;94.16
70928;SHT31;58587;53.034;18.576;2023-12-20T18:05:58;4.14;93.97
70928;SHT31;58587;53.034;18.576;2023-12-20T18:08:24;4.07;93.80
70928;SHT31;58587;53.034;18.576;2023-12-20T18:10:49;4.00;93.46
70928;SHT31;58587;53.034;18.576;2023-12-20T18:13:15;3.94;93.33
70928;SHT31;58587;53.034;18.576;2023-12-20T18:15:40;3.87;93.54
70928;SHT31;58587;53.034;18.576;2023-12-20T18:18:05;3.82;93.83
70928;SHT31;58587;53.034;18.576;2023-12-20T18:20:34;3.82;93.76
70928;SHT31;58587;53.034;18.576;2023-12-20T18:23:00;3.76;93.84
70928;SHT31;58587;53.034;18.576;2023-12-20T18:25:25;3.76;94.04
70928;SHT31;58587;53.034;18.576;2023-12-20T18:27:50;3.66;94.25
70928;SHT31;58587;53.034;18.576;2023-12-20T18:30:16;3.66;94.09
70928;SHT31;58587;53.034;18.576;2023-12-20T18:32:41;3.63;94.56
70928;SHT31;58587;53.034;18.576;2023-12-20T18:35:06;3.56;94.59
70928;SHT31;58587;53.034;18.576;2023-12-20T18:37:32;3.52;94.50
70928;SHT31;58587;53.034;18.576;2023-12-20T18:40:00;3.56;94.71
70928;SHT31;58587;53.034;18.576;2023-12-20T18:42:25;3.58;95.13
70928;SHT31;58587;53.034;18.576;2023-12-20T18:44:50;3.59;95.08
70928;SHT31;58587;53.034;18.576;2023-12-20T18:47:16;3.59;94.87
70928;SHT31;58587;53.034;18.576;2023-12-20T18:49:41;3.58;94.71
70928;SHT31;58587;53.034;18.576;2023-12-20T18:52:06;3.52;95.04
70928;SHT31;58587;53.034;18.576;2023-12-20T18:54:33;3.59;94.91
70928;SHT31;58587;53.034;18.576;2023-12-20T18:56:58;3.59;94.63
70928;SHT31;58587;53.034;18.576;2023-12-20T18:59:24;3.63;94.70
70928;SHT31;58587;53.034;18.576;2023-12-20T19:01:49;3.66;94.44
70928;SHT31;58587;53.034;18.576;2023-12-20T19:04:15;3.66;94.77
70928;SHT31;58587;53.034;18.576;2023-12-20T19:06:41;3.63;94.55
70928;SHT31;58587;53.034;18.576;2023-12-20T19:09:07;3.62;94.72
70928;SHT31;58587;53.034;18.576;2023-12-20T19:11:32;3.58;94.31
70928;SHT31;58587;53.034;18.576;2023-12-20T19:13:59;3.56;94.16
70928;SHT31;58587;53.034;18.576;2023-12-20T19:16:24;3.52;94.09
70928;SHT31;58587;53.034;18.576;2023-12-20T19:18:50;3.51;94.11
70928;SHT31;58587;53.034;18.576;2023-12-20T19:21:15;3.51;93.87
70928;SHT31;58587;53.034;18.576;2023-12-20T19:23:40;3.49;93.79
70928;SHT31;58587;53.034;18.576;2023-12-20T19:26:09;3.51;93.88
70928;SHT31;58587;53.034;18.576;2023-12-20T19:28:34;3.51;93.86
70928;SHT31;58587;53.034;18.576;2023-12-20T19:31:01;3.55;93.86
70928;SHT31;58587;53.034;18.576;2023-12-20T19:33:35;3.51;93.96
70928;SHT31;58587;53.034;18.576;2023-12-20T19:36:00;3.58;93.96
70928;SHT31;58587;53.034;18.576;2023-12-20T19:38:25;3.56;93.84
70928;SHT31;58587;53.034;18.576;2023-12-20T19:40:51;3.59;93.23
70928;SHT31;58587;53.034;18.576;2023-12-20T19:43:18;3.65;93.36
70928;SHT31;58587;53.034;18.576;2023-12-20T19:45:44;3.65;92.72
70928;SHT31;58587;53.034;18.576;2023-12-20T19:48:09;3.65;92.90
70928;SHT31;58587;53.034;18.576;2023-12-20T19:50:34;3.68;92.44
70928;SHT31;58587;53.034;18.576;2023-12-20T19:52:59;3.70;92.70
70928;SHT31;58587;53.034;18.576;2023-12-20T19:55:25;3.69;92.29
70928;SHT31;58587;53.034;18.576;2023-12-20T19:57:50;3.70;91.89
70928;SHT31;58587;53.034;18.576;2023-12-20T20:00:18;3.70;92.10
70928;SHT31;58587;53.034;18.576;2023-12-20T20:02:43;3.69;92.04
70928;SHT31;58587;53.034;18.576;2023-12-20T20:05:08;3.69;92.04
70928;SHT31;58587;53.034;18.576;2023-12-20T20:07:35;3.70;91.81
70928;SHT31;58587;53.034;18.576;2023-12-20T20:10:00;3.72;91.51
70928;SHT31;58587;53.034;18.576;2023-12-20T20:12:25;3.75;91.01
70928;SHT31;58587;53.034;18.576;2023-12-20T20:14:51;3.76;91.22
70928;SHT31;58587;53.034;18.576;2023-12-20T20:17:16;3.82;90.87
70928;SHT31;58587;53.034;18.576;2023-12-20T20:19:43;3.76;90.97
70928;SHT31;58587;53.034;18.576;2023-12-20T20:22:08;3.73;91.00
70928;SHT31;58587;53.034;18.576;2023-12-20T20:24:34;3.70;91.26
70928;SHT31;58587;53.034;18.576;2023-12-20T20:26:59;3.70;91.13
70928;SHT31;58587;53.034;18.576;2023-12-20T20:29:25;3.66;91.79
70928;SHT31;58587;53.034;18.576;2023-12-20T20:31:50;3.63;91.14
70928;SHT31;58587;53.034;18.576;2023-12-20T20:34:15;3.63;91.04
70928;SHT31;58587;53.034;18.576;2023-12-20T20:36:42;3.59;90.92
70928;SHT31;58587;53.034;18.576;2023-12-20T20:39:07;3.54;91.01
70928;SHT31;58587;53.034;18.576;2023-12-20T20:41:33;3.51;90.86
70928;SHT31;58587;53.034;18.576;2023-12-20T20:43:58;3.48;91.02
70928;SHT31;58587;53.034;18.576;2023-12-20T20:46:23;3.45;91.14
70928;SHT31;58587;53.034;18.576;2023-12-20T20:48:55;3.40;91.17
70928;SHT31;58587;53.034;18.576;2023-12-20T20:51:20;3.34;91.30
70928;SHT31;58587;53.034;18.576;2023-12-20T20:53:45;3.29;91.13
70928;SHT31;58587;53.034;18.576;2023-12-20T20:56:11;3.27;91.28
70928;SHT31;58587;53.034;18.576;2023-12-20T20:58:36;3.22;91.28
70928;SHT31;58587;53.034;18.576;2023-12-20T21:01:01;3.29;90.85
70928;SHT31;58587;53.034;18.576;2023-12-20T21:03:27;3.25;91.04
70928;SHT31;58587;53.034;18.576;2023-12-20T21:05:53;3.28;90.98
70928;SHT31;58587;53.034;18.576;2023-12-20T21:08:18;3.24;91.47
70928;SHT31;58587;53.034;18.576;2023-12-20T21:10:43;3.28;91.30
70928;SHT31;58587;53.034;18.576;2023-12-20T21:13:09;3.29;91.60
70928;SHT31;58587;53.034;18.576;2023-12-20T21:15:35;3.32;91.62
70928;SHT31;58587;53.034;18.576;2023-12-20T21:18:00;3.27;91.88
70928;SHT31;58587;53.034;18.576;2023-12-20T21:20:25;3.31;92.03
70928;SHT31;58587;53.034;18.576;2023-12-20T21:22:51;3.31;91.84
70928;SHT31;58587;53.034;18.576;2023-12-20T21:25:16;3.35;91.67
70928;SHT31;58587;53.034;18.576;2023-12-20T21:27:42;3.38;91.90
70928;SHT31;58587;53.034;18.576;2023-12-20T21:30:07;3.45;91.27
70928;SHT31;58587;53.034;18.576;2023-12-20T21:32:36;3.40;91.94
70928;SHT31;58587;53.034;18.576;2023-12-20T21:35:01;3.43;91.46
70928;SHT31;58587;53.034;18.576;2023-12-20T21:37:27;3.39;91.76
70928;SHT31;58587;53.034;18.576;2023-12-20T21:39:52;3.42;91.35
70928;SHT31;58587;53.034;18.576;2023-12-20T21:42:17;3.42;91.65
70928;SHT31;58587;53.034;18.576;2023-12-20T21:44:42;3.40;91.87
70928;SHT31;58587;53.034;18.576;2023-12-20T21:47:08;3.36;91.93
70928;SHT31;58587;53.034;18.576;2023-12-20T21:49:33;3.35;91.62
70928;SHT31;58587;53.034;18.576;2023-12-20T21:51:58;3.32;91.74
70928;SHT31;58587;53.034;18.576;2023-12-20T21:54:24;3.38;91.21
70928;SHT31;58587;53.034;18.576;2023-12-20T21:56:49;3.34;91.88
70928;SHT31;58587;53.034;18.576;2023-12-20T21:59:16;3.32;91.29
70928;SHT31;58587;53.034;18.576;2023-12-20T22:01:41;3.32;91.11
70928;SHT31;58587;53.034;18.576;2023-12-20T22:04:09;3.32;91.60
70928;SHT31;58587;53.034;18.576;2023-12-20T22:06:35;3.32;91.52
70928;SHT31;58587;53.034;18.576;2023-12-20T22:09:00;3.31;91.43
70928;SHT31;58587;53.034;18.576;2023-12-20T22:11:25;3.28;92.02
70928;SHT31;58587;53.034;18.576;2023-12-20T22:13:51;3.32;91.43
70928;SHT31;58587;53.034;18.576;2023-12-20T22:16:16;3.34;91.11
70928;SHT31;58587;53.034;18.576;2023-12-20T22:18:42;3.40;90.89
70928;SHT31;58587;53.034;18.576;2023-12-20T22:21:08;3.42;90.87
70928;SHT31;58587;53.034;18.576;2023-12-20T22:23:38;3.45;90.50
70928;SHT31;58587;53.034;18.576;2023-12-20T22:26:03;3.43;91.32
70928;SHT31;58587;53.034;18.576;2023-12-20T22:28:30;3.42;90.62
70928;SHT31;58587;53.034;18.576;2023-12-20T22:30:56;3.43;91.11
70928;SHT31;58587;53.034;18.576;2023-12-20T22:33:21;3.45;91.06
70928;SHT31;58587;53.034;18.576;2023-12-20T22:35:46;3.43;90.85
